Time;durP1;ratioP1;P1;durP2;ratioP2;P2;SDS_P1;SDS_P2;PMS_P1;PMS_P2;Temp;Humidity;BMP_temperature;BMP_pressure;BME280_temperature;BME280_humidity;BME280_pressure;Samples;Min_cycle;Max_cycle;Signal;HPM_P1;HPM_P2
2021/06/10 00:02:18;;;;;;;22.90;18.77;;;;;;;15.64;100.00;96767.22;5005675;28;20061;-49
2021/06/10 00:04:45;;;;;;;20.42;17.50;;;;;;;15.59;100.00;96768.75;5005168;28;20068;-50
2021/06/10 00:07:14;;;;;;;22.60;18.90;;;;;;;15.44;100.00;96765.91;5003929;28;20085;-52
2021/06/10 00:09:42;;;;;;;17.73;15.82;;;;;;;15.42;100.00;96767.94;5007922;28;20073;-48
2021/06/10 00:12:11;;;;;;;22.38;17.98;;;;;;;15.37;100.00;96770.25;5004082;28;20057;-50
2021/06/10 00:14:41;;;;;;;19.73;17.63;;;;;;;15.43;100.00;96780.22;5001476;28;20066;-49
2021/06/10 00:17:09;;;;;;;20.50;18.23;;;;;;;15.32;100.00;96773.41;5005767;28;20069;-54
2021/06/10 00:19:37;;;;;;;19.98;17.83;;;;;;;15.47;100.00;96765.59;5002149;28;20070;-55
2021/06/10 00:22:05;;;;;;;22.77;19.67;;;;;;;15.46;100.00;96771.09;5006824;28;20080;-48
2021/06/10 00:24:33;;;;;;;23.17;19.85;;;;;;;15.37;100.00;96778.22;5006428;28;20074;-50
2021/06/10 00:27:01;;;;;;;22.40;20.00;;;;;;;15.23;100.00;96777.06;5003065;28;20543;-50
2021/06/10 00:29:30;;;;;;;24.90;21.58;;;;;;;15.36;100.00;96774.72;5004455;28;20066;-50
2021/06/10 00:31:59;;;;;;;23.83;21.17;;;;;;;15.34;100.00;96773.22;5005043;28;20073;-48
2021/06/10 00:34:27;;;;;;;24.50;21.73;;;;;;;15.34;100.00;96778.53;5002999;28;20072;-48
2021/06/10 00:36:56;;;;;;;22.13;19.80;;;;;;;15.28;100.00;96781.84;5010392;28;20560;-51
2021/06/10 00:39:24;;;;;;;25.23;19.58;;;;;;;15.33;100.00;96782.22;5001774;28;20485;-50
2021/06/10 00:41:52;;;;;;;23.52;21.02;;;;;;;15.18;100.00;96787.38;5003149;28;20454;-52
2021/06/10 00:44:20;;;;;;;20.40;18.08;;;;;;;15.10;100.00;96785.50;5003344;28;20086;-52
2021/06/10 00:46:48;;;;;;;21.35;19.15;;;;;;;15.13;100.00;96793.16;5004647;28;20072;-55
2021/06/10 00:49:17;;;;;;;21.67;18.40;;;;;;;15.22;100.00;96774.56;5003775;28;20528;-53
2021/06/10 00:51:45;;;;;;;18.98;16.42;;;;;;;15.22;100.00;96788.69;5007660;28;20088;-58
2021/06/10 00:54:13;;;;;;;20.73;17.77;;;;;;;15.28;100.00;96781.84;4995663;28;20540;-56
2021/06/10 00:56:41;;;;;;;21.83;19.48;;;;;;;15.14;100.00;96783.34;5004170;28;20470;-55
2021/06/10 00:59:10;;;;;;;22.88;18.75;;;;;;;15.24;100.00;96783.19;5004984;28;20133;-51
2021/06/10 01:01:38;;;;;;;21.75;18.88;;;;;;;14.90;100.00;96785.00;5000520;28;20104;-54
2021/06/10 01:04:06;;;;;;;22.77;20.38;;;;;;;14.75;100.00;96783.13;5007933;28;20064;-53
2021/06/10 01:06:40;;;;;;;22.60;20.23;;;;;;;14.81;100.00;96780.66;4987236;28;20065;-57
2021/06/10 01:09:11;;;;;;;22.95;20.48;;;;;;;14.90;100.00;96785.00;5005205;28;20568;-53
2021/06/10 01:11:44;;;;;;;23.85;20.58;;;;;;;14.83;100.00;96777.84;5000729;28;20073;-56
2021/06/10 01:14:17;;;;;;;23.20;19.13;;;;;;;14.81;100.00;96779.84;5001334;28;20080;-55
2021/06/10 01:16:47;;;;;;;22.30;19.40;;;;;;;14.89;100.00;96780.66;5003055;28;20506;-56
2021/06/10 01:19:18;;;;;;;21.93;18.67;;;;;;;14.84;100.00;96772.38;5005220;28;20092;-56
2021/06/10 01:21:48;;;;;;;20.48;17.35;;;;;;;14.81;100.00;96770.03;5003840;28;20504;-54
2021/06/10 01:24:38;;;;;;;20.03;16.70;;;;;;;14.89;100.00;96766.56;5005692;28;20077;-56
2021/06/10 01:27:19;;;;;;;19.55;17.40;;;;;;;15.01;100.00;96759.97;5001574;28;20556;-53
2021/06/10 01:29:49;;;;;;;20.05;17.88;;;;;;;14.85;100.00;96763.41;5001287;28;20069;-54
2021/06/10 01:32:18;;;;;;;26.77;19.40;;;;;;;14.91;100.00;96761.94;4999294;28;20074;-51
2021/06/10 01:34:47;;;;;;;24.58;18.95;;;;;;;14.93;100.00;96763.44;5003229;28;20066;-53
2021/06/10 01:37:16;;;;;;;21.38;19.08;;;;;;;14.87;100.00;96764.09;5001164;28;20096;-54
2021/06/10 01:39:45;;;;;;;24.83;20.13;;;;;;;14.99;100.00;96766.41;5006539;28;20077;-51
2021/06/10 01:42:14;;;;;;;22.08;19.67;;;;;;;14.81;100.00;96756.78;5001523;28;20057;-52
2021/06/10 01:44:43;;;;;;;23.38;19.10;;;;;;;14.85;100.00;96752.78;5003735;28;20310;-49
2021/06/10 01:47:12;;;;;;;21.88;19.48;;;;;;;14.90;100.00;96747.84;5003420;28;20076;-51
2021/06/10 01:49:41;;;;;;;20.17;18.08;;;;;;;15.02;100.00;96743.00;5002730;28;20061;-49
2021/06/10 01:52:09;;;;;;;22.40;19.88;;;;;;;14.88;100.00;96747.16;4999848;28;20082;-52
2021/06/10 01:54:38;;;;;;;21.08;18.73;;;;;;;14.94;100.00;96751.81;5009511;28;20069;-50
2021/06/10 01:57:06;;;;;;;20.42;18.17;;;;;;;14.83;100.00;96752.13;4998761;28;20514;-52
2021/06/10 01:59:36;;;;;;;20.23;18.02;;;;;;;14.71;100.00;96750.78;5004050;28;20049;-52
2021/06/10 02:02:07;;;;;;;20.77;18.58;;;;;;;14.78;100.00;96745.66;4982901;28;20073;-53
2021/06/10 02:04:35;;;;;;;21.55;19.17;;;;;;;14.77;100.00;96747.47;5003804;28;20057;-53
2021/06/10 02:07:04;;;;;;;21.20;18.90;;;;;;;14.68;100.00;96756.41;5002357;28;20065;-46
2021/06/10 02:09:32;;;;;;;20.63;18.42;;;;;;;14.71;100.00;96751.59;5005802;28;20505;-49
2021/06/10 02:12:01;;;;;;;21.05;18.77;;;;;;;14.63;100.00;96762.22;5003686;28;20065;-51
2021/06/10 02:14:29;;;;;;;22.90;18.52;;;;;;;14.60;100.00;96761.72;5003303;28;20038;-49
2021/06/10 02:16:58;;;;;;;23.02;18.45;;;;;;;14.63;100.00;96756.91;5003509;28;20057;-52
2021/06/10 02:19:28;;;;;;;19.77;17.60;;;;;;;14.61;100.00;96753.56;4985946;28;20122;-51
2021/06/10 02:21:56;;;;;;;21.70;18.42;;;;;;;14.54;100.00;96755.22;5006806;28;20069;-49
2021/06/10 02:24:24;;;;;;;20.13;17.77;;;;;;;14.48;100.00;96758.47;5000417;28;20449;-53
2021/06/10 02:26:52;;;;;;;21.25;17.42;;;;;;;14.63;100.00;96748.94;4987550;28;20434;-48
2021/06/10 02:29:20;;;;;;;19.23;17.23;;;;;;;14.67;100.00;96749.44;4981092;28;20430;-53
2021/06/10 02:31:48;;;;;;;20.27;17.85;;;;;;;14.78;100.00;96746.47;5003430;28;20058;-47
2021/06/10 02:34:20;;;;;;;20.98;18.55;;;;;;;14.85;100.00;96747.47;5001386;28;20065;-49
2021/06/10 02:36:49;;;;;;;21.52;18.35;;;;;;;14.76;100.00;96758.25;4989372;28;20155;-51
2021/06/10 02:39:18;;;;;;;21.40;19.17;;;;;;;14.68;100.00;96757.25;5004286;28;20080;-47
2021/06/10 02:41:50;;;;;;;20.60;18.40;;;;;;;14.40;100.00;96759.28;4988456;28;20076;-50
2021/06/10 02:44:19;;;;;;;22.25;18.73;;;;;;;14.56;100.00;96760.38;4983992;28;20065;-49
2021/06/10 02:46:47;;;;;;;21.77;18.90;;;;;;;14.40;100.00;96758.47;5009618;28;20069;-49
2021/06/10 02:49:16;;;;;;;27.33;19.67;;;;;;;14.52;100.00;96761.66;5003774;28;20480;-50
2021/06/10 02:51:44;;;;;;;25.55;20.73;;;;;;;14.55;100.00;96767.50;5009225;28;20069;-49
2021/06/10 02:54:18;;;;;;;28.05;21.80;;;;;;;14.56;100.00;96769.16;5005818;28;20065;-48
2021/06/10 02:56:46;;;;;;;23.15;20.65;;;;;;;14.59;100.00;96758.22;5007035;28;20069;-52
2021/06/10 02:59:17;;;;;;;27.65;22.20;;;;;;;14.53;100.00;96763.34;5005568;28;20073;-49
2021/06/10 03:01:45;;;;;;;25.17;20.80;;;;;;;14.39;100.00;96778.03;5008063;28;20076;-50
2021/06/10 03:04:14;;;;;;;29.00;21.50;;;;;;;14.40;100.00;96775.22;5004221;28;20184;-49
2021/06/10 03:06:43;;;;;;;26.05;22.02;;;;;;;14.49;100.00;96776.09;5007901;28;20092;-52
2021/06/10 03:09:14;;;;;;;27.13;22.00;;;;;;;14.35;100.00;96779.31;5004802;28;20076;-53
2021/06/10 03:11:44;;;;;;;27.60;22.08;;;;;;;14.31;100.00;96778.00;5001256;28;20070;-50
2021/06/10 03:14:12;;;;;;;27.25;22.83;;;;;;;14.36;100.00;96773.88;5007259;28;20065;-47
2021/06/10 03:16:41;;;;;;;27.30;22.20;;;;;;;14.42;100.00;96778.56;5002545;28;20069;-50
2021/06/10 03:19:09;;;;;;;30.45;23.13;;;;;;;14.43;100.00;96766.09;5007401;28;20093;-49
2021/06/10 03:21:38;;;;;;;26.42;23.20;;;;;;;14.23;100.00;96773.50;5007126;28;20097;-51
2021/06/10 03:24:07;;;;;;;30.33;23.67;;;;;;;14.29;100.00;96791.44;5005177;28;20463;-48
2021/06/10 03:26:37;;;;;;;30.92;24.77;;;;;;;14.59;100.00;96787.44;5002370;28;20057;-48
2021/06/10 03:29:06;;;;;;;29.15;24.08;;;;;;;14.51;100.00;96781.25;5004462;28;20065;-50
2021/06/10 03:31:34;;;;;;;31.73;25.98;;;;;;;14.61;100.00;96787.25;5002554;28;20049;-53
2021/06/10 03:34:03;;;;;;;31.40;26.00;;;;;;;14.69;100.00;96789.91;5007274;28;20470;-49
2021/06/10 03:36:31;;;;;;;35.50;26.02;;;;;;;14.61;100.00;96787.25;5005545;28;20093;-50
2021/06/10 03:38:59;;;;;;;34.40;27.02;;;;;;;14.64;100.00;96797.56;5005460;28;20470;-50
2021/06/10 03:41:27;;;;;;;35.45;27.60;;;;;;;14.36;100.00;96800.41;5004827;28;20069;-48
2021/06/10 03:43:57;;;;;;;34.22;28.52;;;;;;;14.52;100.00;96809.44;5003559;28;20054;-47
2021/06/10 03:46:25;;;;;;;34.95;27.42;;;;;;;14.41;100.00;96802.56;5003659;28;20072;-53
2021/06/10 03:48:53;;;;;;;34.80;28.92;;;;;;;14.64;100.00;96808.16;5009340;28;20069;-50
2021/06/10 03:51:21;;;;;;;35.67;29.15;;;;;;;14.62;100.00;96812.78;5003786;28;20607;-50
2021/06/10 03:53:50;;;;;;;36.20;29.30;;;;;;;14.84;100.00;96801.59;5009487;28;20061;-49
2021/06/10 03:56:19;;;;;;;38.97;29.73;;;;;;;14.89;100.00;96801.09;5003827;28;20812;-47
2021/06/10 03:58:47;;;;;;;39.22;29.63;;;;;;;15.02;100.00;96792.66;5005375;28;20068;-52
2021/06/10 04:01:16;;;;;;;38.90;29.15;;;;;;;14.99;100.00;96788.50;5006964;28;20537;-49
2021/06/10 04:03:44;;;;;;;40.28;30.13;;;;;;;14.80;100.00;96792.28;5004782;28;20073;-47
2021/06/10 04:06:15;;;;;;;37.33;29.85;;;;;;;15.16;100.00;96794.66;5005720;28;20057;-53
2021/06/10 04:08:43;;;;;;;35.75;28.70;;;;;;;15.21;100.00;96787.03;5003932;28;20457;-48
2021/06/10 04:11:11;;;;;;;36.63;28.52;;;;;;;15.37;100.00;96791.50;5003869;28;20085;-50
2021/06/10 04:13:39;;;;;;;32.63;27.77;;;;;;;15.59;100.00;96784.69;5003570;28;20076;-50
2021/06/10 04:16:07;;;;;;;39.25;28.63;;;;;;;15.77;100.00;96781.88;5006239;28;20069;-50
2021/06/10 04:18:37;;;;;;;35.58;27.90;;;;;;;15.81;100.00;96778.69;5004646;28;21206;-50
2021/06/10 04:21:05;;;;;;;33.15;27.00;;;;;;;16.26;100.00;96776.41;5006471;28;20069;-46
2021/06/10 04:23:32;;;;;;;30.77;27.15;;;;;;;16.34;100.00;96779.03;5004141;28;20066;-48
2021/06/10 04:26:01;;;;;;;30.65;25.42;;;;;;;16.25;100.00;96780.91;5003662;28;20463;-49
2021/06/10 04:28:29;;;;;;;26.60;23.13;;;;;;;16.21;100.00;96781.41;5007998;28;20061;-49
2021/06/10 04:30:57;;;;;;;27.38;23.88;;;;;;;16.61;100.00;96781.22;5007245;28;20081;-47
2021/06/10 04:33:25;;;;;;;26.80;23.55;;;;;;;16.94;100.00;96772.25;5001872;28;20069;-49
2021/06/10 04:35:54;;;;;;;28.00;23.80;;;;;;;16.63;100.00;96783.72;5004493;28;20068;-51
2021/06/10 04:38:22;;;;;;;27.95;21.55;;;;;;;16.84;100.00;96775.16;4998895;28;20595;-53
2021/06/10 04:40:50;;;;;;;27.70;22.65;;;;;;;16.42;100.00;96776.34;5005634;28;20069;-53
2021/06/10 04:43:18;;;;;;;27.60;22.27;;;;;;;16.38;100.00;96780.34;5002549;28;20483;-52
2021/06/10 04:45:46;;;;;;;28.85;22.65;;;;;;;16.27;100.00;96780.72;5005223;28;20625;-53
2021/06/10 04:48:14;;;;;;;24.83;22.05;;;;;;;16.59;100.00;96782.41;5004363;28;20070;-48
2021/06/10 04:50:42;;;;;;;24.55;22.05;;;;;;;16.62;100.00;96782.06;5004312;28;20081;-50
2021/06/10 04:53:11;;;;;;;26.38;21.85;;;;;;;16.47;100.00;96787.28;5008439;28;20069;-53
2021/06/10 04:55:40;;;;;;;24.23;21.63;;;;;;;16.90;100.00;96782.44;5003882;28;20066;-53
2021/06/10 04:58:08;;;;;;;25.27;21.38;;;;;;;17.00;100.00;96779.56;5003719;28;20089;-48
2021/06/10 05:00:38;;;;;;;25.17;22.48;;;;;;;17.31;100.00;96790.16;5003766;28;20076;-53
2021/06/10 05:03:06;;;;;;;25.40;21.20;;;;;;;17.60;100.00;96783.25;5005537;28;20473;-48
2021/06/10 05:05:34;;;;;;;25.20;20.55;;;;;;;17.61;100.00;96780.38;5001180;28;20133;-50
2021/06/10 05:08:03;;;;;;;24.75;21.33;;;;;;;18.60;100.00;96774.81;5005816;28;20061;-47
2021/06/10 05:10:32;;;;;;;21.55;19.25;;;;;;;19.07;100.00;96766.34;5002844;28;20079;-51
2021/06/10 05:13:00;;;;;;;21.67;18.25;;;;;;;19.85;100.00;96763.72;5002360;28;20081;-52
2021/06/10 05:15:28;;;;;;;20.48;18.35;;;;;;;19.87;100.00;96772.38;5003208;28;20096;-50
2021/06/10 05:17:56;;;;;;;18.58;16.55;;;;;;;19.75;100.00;96776.59;5003679;28;20069;-52
2021/06/10 05:20:26;;;;;;;18.60;16.53;;;;;;;20.33;100.00;96767.28;5001607;28;20091;-49
2021/06/10 05:22:54;;;;;;;17.88;15.98;;;;;;;20.95;100.00;96757.44;5006225;28;20548;-47
2021/06/10 05:25:22;;;;;;;18.05;16.25;;;;;;;20.54;100.00;96769.09;5001369;28;20081;-50
2021/06/10 05:27:51;;;;;;;17.85;16.08;;;;;;;21.36;100.00;96759.19;5006150;28;20145;-47
2021/06/10 05:30:20;;;;;;;18.58;16.58;;;;;;;20.70;100.00;96764.41;5003387;28;20069;-51
2021/06/10 05:32:48;;;;;;;20.02;16.98;;;;;;;21.00;100.00;96771.09;5004930;28;20477;-48
2021/06/10 05:35:17;;;;;;;18.60;16.77;;;;;;;20.61;100.00;96777.13;5002294;28;21925;-49
2021/06/10 05:37:45;;;;;;;18.15;16.35;;;;;;;20.89;100.00;96781.56;5004131;28;20041;-52
2021/06/10 05:40:14;;;;;;;17.85;16.05;;;;;;;19.84;100.00;96783.47;4999575;28;20085;-48
2021/06/10 05:42:42;;;;;;;18.75;16.85;;;;;;;20.22;100.00;96783.09;5005390;28;20081;-53
2021/06/10 05:45:12;;;;;;;19.23;16.58;;;;;;;20.89;100.00;96776.19;5005341;28;20469;-55
2021/06/10 05:47:40;;;;;;;;;;;;;;;20.15;100.00;96783.88;5001964;28;21166;-54
2021/06/10 05:50:08;;;;;;;18.27;16.40;;;;;;;19.55;100.00;96789.81;5007256;28;19964;-45
2021/06/10 05:52:38;;;;;;;19.38;17.38;;;;;;;19.89;100.00;96789.91;5001857;28;20069;-52
2021/06/10 05:55:07;;;;;;;21.27;18.67;;;;;;;19.48;100.00;96795.09;5003846;28;20088;-53
2021/06/10 05:57:35;;;;;;;20.75;18.65;;;;;;;19.51;100.00;96789.38;5005965;28;20081;-55
2021/06/10 06:00:06;;;;;;;19.77;17.88;;;;;;;20.20;100.00;96799.38;5004109;28;20069;-50
2021/06/10 06:02:35;;;;;;;20.60;18.50;;;;;;;20.73;100.00;96788.13;5001068;28;20081;-49
2021/06/10 06:05:04;;;;;;;20.63;18.52;;;;;;;20.33;100.00;96788.72;5004732;28;20066;-54
2021/06/10 06:07:32;;;;;;;20.40;18.17;;;;;;;20.29;100.00;96783.97;4999698;28;20088;-49
2021/06/10 06:10:00;;;;;;;21.77;18.27;;;;;;;19.71;100.00;96794.06;5006301;28;20145;-54
2021/06/10 06:12:28;;;;;;;20.52;18.42;;;;;;;19.67;100.00;96794.47;5004892;28;20556;-49
2021/06/10 06:14:56;;;;;;;21.02;18.88;;;;;;;20.15;100.00;96791.09;5005799;28;20097;-51
2021/06/10 06:17:24;;;;;;;22.10;19.75;;;;;;;20.17;100.00;96794.41;5007013;28;20069;-47
2021/06/10 06:19:58;;;;;;;22.10;19.80;;;;;;;20.15;100.00;96799.94;5008329;28;20088;-48
2021/06/10 06:22:28;;;;;;;22.25;20.02;;;;;;;20.04;100.00;96797.81;5003534;28;20061;-50
2021/06/10 06:24:56;;;;;;;22.95;20.55;;;;;;;20.44;100.00;96800.75;5011477;28;20078;-53
2021/06/10 06:27:24;;;;;;;22.10;19.80;;;;;;;20.98;100.00;96801.81;5006264;28;20092;-50
2021/06/10 06:29:52;;;;;;;24.30;20.48;;;;;;;20.87;100.00;96800.53;5010174;28;20128;-49
2021/06/10 06:32:21;;;;;;;23.80;21.20;;;;;;;19.96;100.00;96802.50;5007080;28;20049;-50
2021/06/10 06:34:48;;;;;;;23.00;20.58;;;;;;;20.02;100.00;96799.03;5006762;28;20065;-51
2021/06/10 06:37:18;;;;;;;25.02;21.60;;;;;;;20.13;100.00;96804.69;5006396;28;20086;-48
2021/06/10 06:39:46;;;;;;;23.35;20.73;;;;;;;20.60;100.00;96804.97;5008904;28;20085;-50
2021/06/10 06:42:14;;;;;;;24.38;21.40;;;;;;;20.54;100.00;96806.59;5007068;28;20097;-51
2021/06/10 06:44:42;;;;;;;21.33;19.00;;;;;;;20.64;100.00;96806.22;5005264;28;20458;-49
2021/06/10 06:47:09;;;;;;;25.88;19.73;;;;;;;20.66;100.00;96806.84;5008049;28;20450;-49
2021/06/10 06:49:38;;;;;;;24.30;21.30;;;;;;;20.29;100.00;96808.91;5005478;28;20069;-50
2021/06/10 06:52:06;;;;;;;23.13;20.73;;;;;;;20.46;100.00;96813.94;5008439;28;20784;-48
2021/06/10 06:54:36;;;;;;;23.77;21.00;;;;;;;20.49;100.00;96826.94;5007064;28;20085;-48
2021/06/10 06:57:06;;;;;;;26.38;22.75;;;;;;;20.94;100.00;96819.34;5006800;28;20069;-49
2021/06/10 06:59:34;;;;;;;23.10;20.60;;;;;;;20.43;100.00;96820.50;5005076;28;20077;-49
2021/06/10 07:02:02;;;;;;;26.08;22.33;;;;;;;21.09;100.00;96818.16;5005104;28;20069;-52
2021/06/10 07:04:30;;;;;;;24.33;20.92;;;;;;;21.12;100.00;96819.59;5003960;28;20518;-54
2021/06/10 07:06:58;;;;;;;23.33;20.92;;;;;;;21.66;100.00;96821.38;5037138;22;20081;-60
2021/06/10 07:09:26;;;;;;;23.45;19.67;;;;;;;21.44;100.00;96818.06;5013790;28;20259;-61
2021/06/10 07:11:55;;;;;;;23.55;20.80;;;;;;;22.17;100.00;96818.06;5028586;28;20056;-58
2021/06/10 07:14:23;;;;;;;23.13;20.73;;;;;;;22.74;100.00;96819.16;5017922;28;20080;-61
2021/06/10 07:16:51;;;;;;;23.45;20.65;;;;;;;21.14;100.00;96824.75;5011510;28;20061;-61
2021/06/10 07:19:20;;;;;;;25.08;22.38;;;;;;;21.07;100.00;96833.63;5009776;28;20086;-60
2021/06/10 07:21:49;;;;;;;25.20;22.50;;;;;;;21.38;100.00;96821.53;5010131;28;20096;-60
2021/06/10 07:24:37;;;;;;;25.13;22.25;;;;;;;21.91;100.00;96821.56;5004122;28;20065;-60
2021/06/10 07:27:09;;;;;;;26.67;22.65;;;;;;;22.02;100.00;96823.66;5008741;28;20066;-60
2021/06/10 07:29:37;;;;;;;24.08;21.55;;;;;;;22.01;100.00;96821.97;5005406;28;20129;-61
2021/06/10 07:32:06;;;;;;;26.02;22.27;;;;;;;22.25;100.00;96825.91;5010955;28;20065;-60
2021/06/10 07:34:36;;;;;;;24.02;21.45;;;;;;;22.16;100.00;96824.50;5017218;28;20076;-61
2021/06/10 07:37:06;;;;;;;23.92;21.33;;;;;;;21.98;100.00;96819.69;5005556;28;20069;-60
2021/06/10 07:39:34;;;;;;;24.70;22.00;;;;;;;21.03;100.00;96826.19;5008619;28;20069;-60
2021/06/10 07:42:03;;;;;;;25.50;22.10;;;;;;;21.61;100.00;96817.63;5005671;28;20081;-63
2021/06/10 07:44:32;;;;;;;26.38;23.73;;;;;;;21.80;100.00;96820.34;5005819;28;20525;-60
2021/06/10 07:47:00;;;;;;;26.43;23.50;;;;;;;22.00;100.00;96822.19;5011385;28;20062;-61
2021/06/10 07:49:28;;;;;;;26.25;23.55;;;;;;;22.39;100.00;96823.19;5012307;28;20080;-61
2021/06/10 07:51:56;;;;;;;25.70;22.95;;;;;;;22.70;100.00;96819.78;5006002;28;20077;-61
2021/06/10 07:54:24;;;;;;;23.60;20.55;;;;;;;21.76;100.00;96831.69;4988898;28;20077;-61
2021/06/10 07:56:53;;;;;;;25.50;22.83;;;;;;;22.37;100.00;96828.78;5004978;28;20142;-61
2021/06/10 07:59:25;;;;;;;25.05;22.45;;;;;;;22.67;100.00;96825.59;4999184;28;20439;-61
2021/06/10 08:01:54;;;;;;;24.38;21.80;;;;;;;22.82;100.00;96825.34;5005670;28;20065;-61
2021/06/10 08:04:23;;;;;;;24.25;21.85;;;;;;;23.85;100.00;96822.53;4991695;28;20573;-61
2021/06/10 08:06:51;;;;;;;23.77;21.38;;;;;;;23.66;100.00;96816.19;4990689;28;20084;-61
2021/06/10 08:09:19;;;;;;;24.10;21.63;;;;;;;22.75;100.00;96830.75;5008376;28;20070;-61
2021/06/10 08:11:47;;;;;;;25.08;22.60;;;;;;;22.46;100.00;96824.81;5003390;28;20098;-60
2021/06/10 08:14:15;;;;;;;24.63;21.98;;;;;;;22.38;100.00;96825.06;5007258;28;20458;-61
2021/06/10 08:16:43;;;;;;;23.98;21.48;;;;;;;23.16;100.00;96830.41;5004807;28;20068;-61
2021/06/10 08:19:13;;;;;;;24.38;21.70;;;;;;;23.58;100.00;96811.09;4987338;28;20069;-60
2021/06/10 08:21:40;;;;;;;25.13;21.73;;;;;;;23.59;100.00;96810.88;5007726;28;20065;-60
2021/06/10 08:24:09;;;;;;;24.08;21.70;;;;;;;23.77;100.00;96812.00;5008393;28;20361;-60
2021/06/10 08:26:37;;;;;;;22.48;20.23;;;;;;;22.92;100.00;96815.81;5004619;28;20077;-60
2021/06/10 08:29:06;;;;;;;23.73;20.88;;;;;;;23.10;100.00;96822.34;5007960;28;20571;-60
2021/06/10 08:31:34;;;;;;;22.13;19.88;;;;;;;23.82;100.00;96812.19;5007616;28;20073;-60
2021/06/10 08:34:02;;;;;;;23.40;21.02;;;;;;;24.06;100.00;96807.84;5005668;28;20757;-61
2021/06/10 08:36:32;;;;;;;23.30;20.85;;;;;;;24.13;100.00;96811.28;5008219;28;20104;-60
2021/06/10 08:39:00;;;;;;;23.73;21.30;;;;;;;24.11;100.00;96802.59;5000700;28;20057;-60
2021/06/10 08:41:28;;;;;;;23.27;20.88;;;;;;;23.19;100.00;96812.97;5006761;28;20050;-61
2021/06/10 08:43:57;;;;;;;24.17;21.67;;;;;;;23.49;100.00;96810.53;5006179;28;20088;-61
2021/06/10 08:46:26;;;;;;;24.50;22.03;;;;;;;23.44;100.00;96805.78;5007611;28;20066;-58
2021/06/10 08:48:55;;;;;;;21.83;19.63;;;;;;;23.91;100.00;96808.97;5007302;28;20062;-61
2021/06/10 08:51:23;;;;;;;22.88;20.35;;;;;;;23.39;100.00;96805.59;5007962;28;20073;-61
2021/06/10 08:53:52;;;;;;;23.30;20.90;;;;;;;24.47;100.00;96803.72;5005965;28;20077;-59
2021/06/10 08:56:22;;;;;;;20.30;18.20;;;;;;;23.95;100.00;96805.84;5006029;28;20112;-61
2021/06/10 08:58:50;;;;;;;19.95;17.95;;;;;;;24.69;100.00;96812.19;5004603;28;20070;-61
2021/06/10 09:01:18;;;;;;;21.00;18.90;;;;;;;24.82;100.00;96803.94;5007938;28;20108;-61
2021/06/10 09:03:46;;;;;;;19.75;17.85;;;;;;;24.79;100.00;96802.50;5008031;28;20078;-61
2021/06/10 09:06:17;;;;;;;20.45;18.52;;;;;;;25.58;100.00;96802.50;4990842;28;20124;-60
2021/06/10 09:08:46;;;;;;;19.77;17.67;;;;;;;24.82;100.00;96807.44;4999803;28;20133;-62
2021/06/10 09:11:17;;;;;;;19.10;17.27;;;;;;;24.70;100.00;96797.63;5007804;28;20458;-60
2021/06/10 09:13:48;;;;;;;21.75;18.90;;;;;;;25.26;100.00;96807.34;5004610;28;20073;-60
2021/06/10 09:16:17;;;;;;;18.48;16.73;;;;;;;25.53;97.09;96799.66;5006062;28;20061;-58
2021/06/10 09:18:56;;;;;;;22.30;19.75;;;;;;;25.02;100.00;96796.41;5010690;28;20065;-60
2021/06/10 09:21:25;;;;;;;20.65;18.55;;;;;;;25.19;100.00;96796.63;4987144;28;20057;-61
2021/06/10 09:23:54;;;;;;;21.52;19.23;;;;;;;25.14;100.00;96795.66;5002982;28;20061;-60
2021/06/10 09:26:23;;;;;;;20.50;18.45;;;;;;;26.55;85.83;96799.41;5006629;28;20072;-61
2021/06/10 09:29:02;;;;;;;19.27;17.25;;;;;;;26.34;90.66;96794.59;4989752;28;20077;-61
2021/06/10 09:31:32;;;;;;;21.05;18.95;;;;;;;25.94;83.92;96798.00;5005328;28;20073;-59
2021/06/10 09:34:07;;;;;;;20.52;18.33;;;;;;;25.31;97.91;96802.88;5011728;28;20069;-56
2021/06/10 09:36:40;;;;;;;19.25;17.35;;;;;;;25.53;95.87;96802.34;4987334;28;20084;-60
2021/06/10 09:39:10;;;;;;;18.25;16.40;;;;;;;26.44;90.35;96811.03;5005880;28;20069;-58
2021/06/10 09:42:05;;;;;;;16.52;14.60;;;;;;;26.18;82.54;96801.53;5004061;28;20467;-60
2021/06/10 09:44:41;;;;;;;15.73;14.02;;;;;;;25.49;86.19;96801.16;5003471;28;20199;-60
2021/06/10 09:47:09;;;;;;;16.33;14.73;;;;;;;25.50;90.59;96800.97;5008002;28;20069;-61
2021/06/10 09:49:38;;;;;;;13.10;11.75;;;;;;;25.96;81.30;96804.00;5009095;28;20084;-61
2021/06/10 09:52:07;;;;;;;8.98;8.07;;;;;;;26.15;64.51;96799.28;5006777;28;20475;-60
2021/06/10 09:54:45;;;;;;;9.27;8.40;;;;;;;26.79;60.97;96800.19;5012305;28;20077;-60
2021/06/10 09:57:15;;;;;;;9.82;8.60;;;;;;;26.86;64.12;96802.75;5006122;28;20096;-60
2021/06/10 09:59:52;;;;;;;12.25;11.05;;;;;;;27.27;63.40;96804.41;5011003;28;20069;-61
2021/06/10 10:02:23;;;;;;;13.68;12.40;;;;;;;28.54;62.01;96797.56;5007016;28;20069;-61
2021/06/10 10:05:00;;;;;;;14.25;12.85;;;;;;;27.08;85.36;96811.03;5009703;28;20076;-62
2021/06/10 10:07:31;;;;;;;14.95;13.45;;;;;;;26.16;93.72;96799.06;5006315;28;20463;-61
2021/06/10 10:10:00;;;;;;;15.20;13.60;;;;;;;25.42;97.48;96806.66;5014638;28;20077;-60
2021/06/10 10:12:30;;;;;;;14.38;12.88;;;;;;;24.94;96.29;96803.97;5008879;28;20473;-60
2021/06/10 10:14:59;;;;;;;14.65;13.25;;;;;;;24.71;98.24;96804.66;5010971;28;20076;-59
2021/06/10 10:17:28;;;;;;;15.07;13.43;;;;;;;24.88;92.25;96794.94;5007317;28;20061;-61
2021/06/10 10:19:56;;;;;;;12.80;11.60;;;;;;;24.97;99.23;96795.44;5005005;28;20462;-60
2021/06/10 10:22:25;;;;;;;14.10;12.68;;;;;;;24.76;96.07;96789.47;5006142;28;20061;-59
2021/06/10 10:24:53;;;;;;;13.88;12.48;;;;;;;25.63;89.37;96786.41;5012638;28;20090;-61
2021/06/10 10:27:23;;;;;;;13.77;12.38;;;;;;;26.19;82.53;96782.38;5005149;28;20076;-61
2021/06/10 10:29:54;;;;;;;12.40;11.03;;;;;;;25.97;71.79;96773.19;5008711;28;20580;-60
2021/06/10 10:32:24;;;;;;;13.05;11.70;;;;;;;26.54;73.17;96772.63;5006943;28;20077;-60
2021/06/10 10:35:24;;;;;;;13.43;11.10;;;;;;;26.35;77.21;96769.19;5004518;28;20072;-61
2021/06/10 10:37:53;;;;;;;11.77;10.68;;;;;;;26.16;82.97;96771.22;5008628;28;20069;-60
2021/06/10 10:40:22;;;;;;;11.10;10.10;;;;;;;26.39;84.60;96779.28;5010947;28;20204;-60
2021/06/10 10:42:52;;;;;;;11.07;9.73;;;;;;;26.74;81.18;96775.75;5007814;28;20084;-61
2021/06/10 10:45:24;;;;;;;12.73;11.52;;;;;;;26.15;78.89;96767.69;5003827;28;20768;-60
2021/06/10 10:48:00;;;;;;;11.45;10.30;;;;;;;26.42;73.82;96767.19;5006943;28;20533;-61
2021/06/10 10:50:36;;;;;;;11.02;9.93;;;;;;;25.88;71.31;96758.38;5004596;28;20458;-60
2021/06/10 10:53:08;;;;;;;9.13;8.30;;;;;;;25.50;76.76;96763.16;5003657;28;20463;-60
2021/06/10 10:55:35;;;;;;;10.32;9.43;;;;;;;26.24;67.42;96760.03;5008566;28;20074;-61
2021/06/10 10:58:06;;;;;;;10.75;9.85;;;;;;;26.84;67.37;96758.88;5005473;28;20153;-61
2021/06/10 11:00:54;;;;;;;9.63;8.75;;;;;;;26.66;67.81;96749.03;5009195;28;20069;-59
2021/06/10 11:03:27;;;;;;;8.75;7.93;;;;;;;26.49;67.82;96748.97;5010108;28;20072;-61
2021/06/10 11:05:56;;;;;;;8.43;7.55;;;;;;;26.75;62.35;96747.63;5006340;28;20466;-60
2021/06/10 11:08:58;;;;;;;7.47;6.68;;;;;;;26.60;52.83;96753.56;5010565;28;20394;-60
2021/06/10 11:11:50;;;;;;;6.90;6.30;;;;;;;26.28;50.98;96743.09;5007716;28;20092;-58
2021/06/10 11:14:41;;;;;;;7.80;7.00;;;;;;;26.45;52.97;96745.06;5006109;28;20076;-61
2021/06/10 11:17:24;;;;;;;8.48;7.57;;;;;;;26.37;54.75;96743.56;5005666;28;20080;-60
2021/06/10 11:20:02;;;;;;;8.30;7.50;;;;;;;26.88;52.26;96738.41;5005734;28;20066;-58
2021/06/10 11:22:35;;;;;;;8.68;7.85;;;;;;;27.27;62.48;96739.41;5012342;28;20068;-58
2021/06/10 11:25:06;;;;;;;9.32;8.45;;;;;;;27.60;59.65;96733.22;5001837;28;20463;-60